createdAt,value
2019-01-21T00:00:13.878Z,22.37
2019-01-21T00:02:42.255Z,24.17
2019-01-21T00:05:10.807Z,24.53
2019-01-21T00:07:39.334Z,21.93
2019-01-21T00:10:08.674Z,24.83
2019-01-21T00:12:37.070Z,23.20
2019-01-21T00:15:08.150Z,24.37
2019-01-21T00:17:36.526Z,24.80
2019-01-21T00:20:06.771Z,23.97
2019-01-21T00:22:35.233Z,22.13
2019-01-21T00:25:04.194Z,25.10
2019-01-21T00:27:32.717Z,25.07
2019-01-21T00:30:01.122Z,25.23
2019-01-21T00:32:29.496Z,24.00
2019-01-21T00:34:57.892Z,25.07
2019-01-21T00:37:26.344Z,25.33
2019-01-21T00:39:54.736Z,23.30
2019-01-21T00:42:23.255Z,24.83
2019-01-21T00:44:51.766Z,25.63
2019-01-21T00:47:20.153Z,24.10
2019-01-21T00:49:48.554Z,26.87
2019-01-21T00:52:16.932Z,26.80
2019-01-21T00:54:45.387Z,29.87
2019-01-21T00:57:13.770Z,26.67
2019-01-21T00:59:42.247Z,28.07
2019-01-21T01:02:10.631Z,26.43
2019-01-21T01:04:39.034Z,27.23
2019-01-21T01:07:07.422Z,30.27
2019-01-21T01:09:35.819Z,26.60
2019-01-21T01:12:04.275Z,26.20
2019-01-21T01:14:32.666Z,26.13
2019-01-21T01:17:01.045Z,28.07
2019-01-21T01:19:29.468Z,28.60
2019-01-21T01:21:57.849Z,26.30
2019-01-21T01:24:26.234Z,26.50
2019-01-21T01:26:54.623Z,27.90
2019-01-21T01:29:23.001Z,27.73
2019-01-21T01:31:51.467Z,28.13
2019-01-21T01:34:19.850Z,24.20
2019-01-21T01:36:48.240Z,27.33
2019-01-21T01:39:16.626Z,25.00
2019-01-21T01:41:45.017Z,26.30
2019-01-21T01:44:13.443Z,28.17
2019-01-21T01:46:42.114Z,27.60
2019-01-21T01:49:10.863Z,27.00
2019-01-21T01:51:39.257Z,26.47
2019-01-21T01:54:07.644Z,27.47
2019-01-21T01:56:36.036Z,28.00
2019-01-21T01:59:04.483Z,30.17
2019-01-21T02:01:32.882Z,31.40
2019-01-21T02:04:01.276Z,27.67
2019-01-21T02:06:29.675Z,30.83
2019-01-21T02:08:58.065Z,34.73
2019-01-21T02:11:26.477Z,33.47
2019-01-21T02:13:55.144Z,32.87
2019-01-21T02:16:23.542Z,33.17
2019-01-21T02:18:51.953Z,33.33
2019-01-21T02:21:23.132Z,32.07
2019-01-21T02:23:54.295Z,34.37
2019-01-21T02:26:25.043Z,31.07
2019-01-21T02:29:07.977Z,33.10
2019-01-21T02:31:51.301Z,29.00
2019-01-21T02:34:28.700Z,31.37
2019-01-21T02:37:00.141Z,33.53
2019-01-21T02:39:37.552Z,34.20
2019-01-21T02:42:17.539Z,32.80
2019-01-21T02:45:06.900Z,31.70
2019-01-21T02:47:47.463Z,31.27
2019-01-21T02:50:33.821Z,30.87
2019-01-21T02:53:14.277Z,31.07
2019-01-21T02:55:51.406Z,32.43
2019-01-21T02:58:39.526Z,29.33
2019-01-21T03:01:44.424Z,31.57
2019-01-21T03:04:40.292Z,31.77
2019-01-21T03:07:26.959Z,29.70
2019-01-21T03:10:16.561Z,29.40
2019-01-21T03:13:00.229Z,24.20
2019-01-21T03:15:37.789Z,27.00
2019-01-21T03:18:20.989Z,30.33
2019-01-21T03:21:04.280Z,28.70
2019-01-21T03:23:50.782Z,26.23
2019-01-21T03:26:24.741Z,30.93
2019-01-21T03:29:05.400Z,34.57
2019-01-21T03:32:06.959Z,32.53
2019-01-21T03:34:50.237Z,31.50
2019-01-21T03:37:27.166Z,33.27
2019-01-21T03:40:30.695Z,30.30
2019-01-21T03:43:04.776Z,31.30
2019-01-21T03:45:50.568Z,32.20
2019-01-21T03:48:24.844Z,32.17
2019-01-21T03:51:02.187Z,32.10
2019-01-21T03:53:36.438Z,33.50
2019-01-21T03:56:07.161Z,33.63
2019-01-21T03:58:59.416Z,30.67
2019-01-21T04:01:30.857Z,31.13
2019-01-21T04:04:04.947Z,31.67
2019-01-21T04:06:45.607Z,34.57
2019-01-21T04:09:44.438Z,30.50
2019-01-21T04:12:18.735Z,30.97
2019-01-21T04:15:07.434Z,31.80
2019-01-21T04:18:01.803Z,29.30
2019-01-21T04:20:38.541Z,28.47
2019-01-21T04:23:38.888Z,28.97
2019-01-21T04:26:26.772Z,32.13
2019-01-21T04:28:58.222Z,32.33
2019-01-21T04:31:32.582Z,32.30
2019-01-21T04:34:27.926Z,31.77
2019-01-21T04:37:18.489Z,31.90
2019-01-21T04:39:58.903Z,32.60
2019-01-21T04:42:42.023Z,30.97
2019-01-21T04:45:25.416Z,28.97
2019-01-21T04:48:13.612Z,31.60
2019-01-21T04:50:50.764Z,31.00
2019-01-21T04:53:37.322Z,29.93
2019-01-21T04:56:14.413Z,29.60
2019-01-21T04:58:48.741Z,30.27
2019-01-21T05:01:20.195Z,29.57
2019-01-21T05:04:08.118Z,29.77
2019-01-21T05:06:56.465Z,30.80
2019-01-21T05:09:33.574Z,31.67
2019-01-21T05:12:17.075Z,29.73
2019-01-21T05:14:54.408Z,32.20
2019-01-21T05:17:25.835Z,30.40
2019-01-21T05:20:12.632Z,31.43
2019-01-21T05:23:02.253Z,31.87
2019-01-21T05:25:42.670Z,30.00
2019-01-21T05:28:35.441Z,30.17
2019-01-21T05:31:15.725Z,30.07
2019-01-21T05:33:50.077Z,30.97
2019-01-21T05:36:39.021Z,32.90
2019-01-21T05:39:10.740Z,31.37
2019-01-21T05:41:54.309Z,30.70
2019-01-21T05:44:34.570Z,29.43
2019-01-21T05:47:11.663Z,28.00
2019-01-21T05:50:03.962Z,31.33
2019-01-21T05:52:41.183Z,29.13
2019-01-21T05:55:15.325Z,29.13
2019-01-21T05:57:58.734Z,28.43
2019-01-21T06:00:49.686Z,27.60
2019-01-21T06:03:29.906Z,29.23
2019-01-21T06:06:01.351Z,26.67
2019-01-21T06:09:01.523Z,26.77
2019-01-21T06:11:38.265Z,28.67
2019-01-21T06:14:12.258Z,29.80
2019-01-21T06:16:51.976Z,28.07
2019-01-21T06:19:41.609Z,27.60
2019-01-21T06:22:18.918Z,29.13
2019-01-21T06:24:53.263Z,28.97
2019-01-21T06:27:30.339Z,30.60
2019-01-21T06:30:04.924Z,29.73
2019-01-21T06:33:06.732Z,30.30
2019-01-21T06:36:04.045Z,30.83
2019-01-21T06:38:50.592Z,28.40
2019-01-21T06:41:40.075Z,29.03
2019-01-21T06:44:22.858Z,28.00
2019-01-21T06:46:54.308Z,28.23
2019-01-21T06:49:42.570Z,31.40
2019-01-21T06:52:37.939Z,29.40
2019-01-21T06:55:14.939Z,26.73
2019-01-21T06:58:02.857Z,27.27
2019-01-21T07:00:56.890Z,30.17
2019-01-21T07:03:33.886Z,27.70
2019-01-21T07:06:37.049Z,27.90
2019-01-21T07:09:11.500Z,25.87
2019-01-21T07:11:57.954Z,28.30
2019-01-21T07:14:49.241Z,27.30
2019-01-21T07:17:29.756Z,25.93
2019-01-21T07:20:24.167Z,27.10
2019-01-21T07:23:01.244Z,27.67
2019-01-21T07:26:07.427Z,29.27
2019-01-21T07:28:56.891Z,29.17
2019-01-21T07:31:40.328Z,26.30
2019-01-21T07:34:28.253Z,28.20
2019-01-21T07:37:16.457Z,25.67
2019-01-21T07:40:00.234Z,26.27
2019-01-21T07:42:55.632Z,27.57
2019-01-21T07:45:42.098Z,26.27
2019-01-21T07:48:25.700Z,27.50
2019-01-21T07:51:00.040Z,27.83
2019-01-21T07:53:34.265Z,30.57
2019-01-21T07:56:14.498Z,26.27
2019-01-21T07:58:48.656Z,27.70
2019-01-21T08:01:28.492Z,26.77
2019-01-21T08:04:27.215Z,28.27
2019-01-21T08:07:07.432Z,26.50
2019-01-21T08:09:58.309Z,26.87
2019-01-21T08:12:46.212Z,25.07
2019-01-21T08:15:29.658Z,26.97
2019-01-21T08:18:16.197Z,24.73
2019-01-21T08:20:50.185Z,26.67
2019-01-21T08:23:21.630Z,25.80
2019-01-21T08:25:53.059Z,27.10
2019-01-21T08:28:42.454Z,23.93
2019-01-21T08:31:26.202Z,24.80
2019-01-21T08:34:09.687Z,23.83
2019-01-21T08:36:46.725Z,27.60
2019-01-21T08:39:26.844Z,25.87
2019-01-21T08:42:13.590Z,26.80
2019-01-21T08:44:53.764Z,27.17
2019-01-21T08:47:30.915Z,26.40
2019-01-21T08:50:08.030Z,27.47
2019-01-21T08:52:45.306Z,26.43
2019-01-21T08:55:45.637Z,25.10
2019-01-21T08:58:32.113Z,25.73
2019-01-21T09:01:26.220Z,25.40
2019-01-21T09:04:06.171Z,26.87
2019-01-21T09:06:40.122Z,27.43
2019-01-21T09:09:23.353Z,24.87
2019-01-21T09:12:14.219Z,24.80
2019-01-21T09:14:53.889Z,26.47
2019-01-21T09:17:40.369Z,27.07
2019-01-21T09:20:17.617Z,27.07
2019-01-21T09:22:52.015Z,26.57
2019-01-21T09:25:32.341Z,27.70
2019-01-21T09:28:35.726Z,27.13
2019-01-21T09:31:23.461Z,25.80
2019-01-21T09:34:09.862Z,26.10
2019-01-21T09:36:49.614Z,28.00
2019-01-21T09:39:21.105Z,27.13
2019-01-21T09:42:14.496Z,27.60
2019-01-21T09:44:45.941Z,29.47
2019-01-21T09:47:13.184Z,27.57
2019-01-21T09:49:43.820Z,26.37
2019-01-21T09:52:13.687Z,26.50
2019-01-21T09:54:42.307Z,27.00
2019-01-21T09:57:10.754Z,26.60
2019-01-21T09:59:39.142Z,28.20
2019-01-21T10:02:07.528Z,27.83
2019-01-21T10:04:38.969Z,25.70
2019-01-21T10:07:30.957Z,27.17
2019-01-21T10:10:05.600Z,25.90
2019-01-21T10:12:46.200Z,29.47
2019-01-21T10:15:30.110Z,27.70
2019-01-21T10:18:07.588Z,29.20
2019-01-21T10:20:44.717Z,27.47
2019-01-21T10:23:32.701Z,27.17
2019-01-21T10:26:12.947Z,30.43
2019-01-21T10:28:47.021Z,30.00
2019-01-21T10:31:27.286Z,27.63
2019-01-21T10:34:07.336Z,27.07
2019-01-21T10:36:38.785Z,26.07
2019-01-21T10:39:34.053Z,27.83
2019-01-21T10:42:14.430Z,25.90
2019-01-21T10:45:00.666Z,26.27
2019-01-21T10:47:37.424Z,25.10
2019-01-21T10:50:23.226Z,26.27
2019-01-21T10:53:02.907Z,25.33
2019-01-21T10:55:56.117Z,24.37
2019-01-21T10:58:30.378Z,26.10
2019-01-21T11:01:35.366Z,25.62
2019-01-21T11:04:21.903Z,24.23
2019-01-21T11:07:21.324Z,24.53
2019-01-21T11:10:04.530Z,22.87
2019-01-21T11:12:45.179Z,24.47
2019-01-21T11:15:19.491Z,24.37
2019-01-21T11:17:53.444Z,25.10
2019-01-21T11:20:41.704Z,25.63
2019-01-21T11:23:29.707Z,23.73
2019-01-21T11:26:25.140Z,25.20
2019-01-21T11:28:59.611Z,24.60
2019-01-21T11:31:37.121Z,23.37
2019-01-21T11:34:44.089Z,24.40
2019-01-21T11:37:52.439Z,23.77
2019-01-21T11:41:00.730Z,24.20
2019-01-21T11:44:09.030Z,23.47
2019-01-21T11:47:17.379Z,25.90
2019-01-21T11:50:24.345Z,25.07
2019-01-21T11:53:32.711Z,23.90
2019-01-21T11:56:39.718Z,23.73
2019-01-21T11:59:46.694Z,24.10
2019-01-21T12:02:53.732Z,24.53
2019-01-21T12:06:02.030Z,25.07
2019-01-21T12:15:10.306Z,23.30
2019-01-21T12:18:17.300Z,23.00
2019-01-21T12:21:24.284Z,24.13
2019-01-21T12:24:32.660Z,21.37
2019-01-21T12:27:39.679Z,24.30
2019-01-21T12:30:48.048Z,21.47
2019-01-21T12:33:56.409Z,21.57
2019-01-21T12:37:04.797Z,22.70
2019-01-21T12:40:13.121Z,22.30
2019-01-21T12:43:21.451Z,22.60
2019-01-21T12:46:28.454Z,21.87
2019-01-21T12:49:35.441Z,21.10
2019-01-21T12:52:43.939Z,23.00
2019-01-21T12:55:50.932Z,23.03
2019-01-21T12:58:57.941Z,23.57
2019-01-21T13:02:06.310Z,19.83
2019-01-21T13:05:13.468Z,21.40
2019-01-21T13:08:21.857Z,22.50
2019-01-21T13:11:28.836Z,21.80
2019-01-21T13:14:37.226Z,21.63
2019-01-21T13:17:45.532Z,20.23
2019-01-21T13:20:53.984Z,21.20
2019-01-21T13:24:02.343Z,20.57
2019-01-21T13:27:10.633Z,20.47
2019-01-21T13:30:18.928Z,21.03
2019-01-21T13:33:25.905Z,23.30
2019-01-21T13:36:32.887Z,20.37
2019-01-21T13:39:41.199Z,21.27
2019-01-21T13:42:49.722Z,20.20
2019-01-21T13:45:56.725Z,19.97
2019-01-21T13:49:03.700Z,21.90
2019-01-21T13:52:10.675Z,19.87
2019-01-21T13:55:17.656Z,20.20
2019-01-21T13:58:26.009Z,19.37
2019-01-21T14:01:32.986Z,20.83
2019-01-21T14:04:39.971Z,20.57
2019-01-21T14:07:46.960Z,19.90
2019-01-21T14:10:55.269Z,19.70
2019-01-21T14:14:03.611Z,20.13
2019-01-21T14:17:11.921Z,20.10
2019-01-21T14:20:20.355Z,22.20
2019-01-21T14:23:28.720Z,20.20
2019-01-21T14:26:35.699Z,18.97
2019-01-21T14:29:42.670Z,20.87
2019-01-21T14:32:51.094Z,21.90
2019-01-21T14:36:00.478Z,19.83
2019-01-21T14:39:09.648Z,18.60
2019-01-21T14:42:17.981Z,18.17
2019-01-21T14:45:24.968Z,17.20
2019-01-21T14:48:33.256Z,18.97
2019-01-21T14:51:40.248Z,18.90
2019-01-21T14:54:48.520Z,18.40
2019-01-21T14:57:55.512Z,18.17
2019-01-21T15:01:02.542Z,18.83
2019-01-21T15:04:09.457Z,17.97
2019-01-21T15:07:17.764Z,18.40
2019-01-21T15:10:26.091Z,18.30
2019-01-21T15:13:33.017Z,19.40
2019-01-21T15:16:41.379Z,19.27
2019-01-21T15:19:49.758Z,18.40
2019-01-21T15:22:58.284Z,17.60
2019-01-21T15:26:06.737Z,18.97
2019-01-21T15:29:15.069Z,18.67
2019-01-21T15:32:23.533Z,18.97
2019-01-21T15:35:30.592Z,19.33
2019-01-21T15:38:38.911Z,17.80
2019-01-21T15:41:45.889Z,19.20
2019-01-21T15:44:54.176Z,18.10
2019-01-21T15:48:02.485Z,18.70
2019-01-21T15:51:09.458Z,19.60
2019-01-21T15:54:17.753Z,19.20
2019-01-21T15:57:24.732Z,20.67
2019-01-21T16:00:33.075Z,19.87
2019-01-21T16:03:41.381Z,18.57
2019-01-21T16:06:49.656Z,19.87
2019-01-21T16:09:56.640Z,18.70
2019-01-21T16:13:03.623Z,18.90
2019-01-21T16:16:10.598Z,19.30
2019-01-21T16:19:17.588Z,19.57
2019-01-21T16:22:24.621Z,19.80
2019-01-21T16:25:32.903Z,19.57
2019-01-21T16:28:39.892Z,20.53
2019-01-21T16:31:48.179Z,18.73
2019-01-21T16:34:55.163Z,20.13
2019-01-21T16:38:03.521Z,19.10
2019-01-21T16:41:11.809Z,19.90
2019-01-21T16:43:40.199Z,20.37
2019-01-21T16:46:08.595Z,19.20
2019-01-21T16:48:36.997Z,19.33
2019-01-21T16:51:05.529Z,20.30
2019-01-21T16:53:33.915Z,29.50
2019-01-21T16:56:02.305Z,21.17
2019-01-21T16:58:30.688Z,22.87
2019-01-21T17:00:59.075Z,20.00
2019-01-21T17:03:27.536Z,19.37
2019-01-21T17:05:55.926Z,20.13
2019-01-21T17:08:24.303Z,21.13
2019-01-21T17:10:52.694Z,21.00
2019-01-21T17:13:21.088Z,22.63
2019-01-21T17:15:49.467Z,22.50
2019-01-21T17:18:17.866Z,23.20
2019-01-21T17:20:46.242Z,22.10
2019-01-21T17:23:14.667Z,24.57
2019-01-21T17:25:43.049Z,25.90
2019-01-21T17:28:11.430Z,27.67
2019-01-21T17:30:39.824Z,25.87
2019-01-21T17:33:08.201Z,23.80
2019-01-21T17:35:36.587Z,24.30
2019-01-21T17:38:05.138Z,22.67
2019-01-21T17:40:33.524Z,21.13
2019-01-21T17:43:01.905Z,21.70
2019-01-21T17:45:30.296Z,22.40
2019-01-21T17:47:58.670Z,23.50
2019-01-21T17:50:27.059Z,22.20
2019-01-21T17:52:55.445Z,20.87
2019-01-21T17:55:23.840Z,19.93
2019-01-21T17:57:52.219Z,22.00
2019-01-21T18:00:22.461Z,22.50
2019-01-21T18:02:50.844Z,22.03
2019-01-21T18:05:19.236Z,22.17
2019-01-21T18:07:47.612Z,23.10
2019-01-21T18:10:18.137Z,23.37
2019-01-21T18:12:46.518Z,20.47
2019-01-21T18:15:15.349Z,21.47
2019-01-21T18:17:43.737Z,22.13
2019-01-21T18:20:15.469Z,19.73
2019-01-21T18:22:43.851Z,21.70
2019-01-21T18:25:12.881Z,20.83
2019-01-21T18:27:41.329Z,21.57
2019-01-21T18:30:15.532Z,23.25
2019-01-21T18:32:43.905Z,22.00
2019-01-21T18:35:13.436Z,22.67
2019-01-21T18:37:41.979Z,21.43
2019-01-21T18:40:13.609Z,20.90
2019-01-21T18:42:42.052Z,21.70
2019-01-21T18:45:13.414Z,23.40
2019-01-21T18:47:41.793Z,22.23
2019-01-21T18:50:11.519Z,23.67
2019-01-21T18:52:39.895Z,23.10
2019-01-21T18:55:09.629Z,23.17
2019-01-21T18:57:38.168Z,22.87
2019-01-21T19:00:15.472Z,23.77
2019-01-21T19:02:43.855Z,22.00
2019-01-21T19:05:12.380Z,23.90
2019-01-21T19:07:40.755Z,23.67
2019-01-21T19:10:11.922Z,23.07
2019-01-21T19:12:40.307Z,22.10
2019-01-21T19:15:17.917Z,22.33
2019-01-21T19:17:46.364Z,22.17
2019-01-21T19:20:15.997Z,21.90
2019-01-21T19:22:44.379Z,21.40
2019-01-21T19:25:13.045Z,23.90
2019-01-21T19:27:41.423Z,23.10
2019-01-21T19:30:15.429Z,23.03
2019-01-21T19:32:43.792Z,23.33
2019-01-21T19:35:21.242Z,22.80
2019-01-21T19:37:49.630Z,23.80
2019-01-21T19:40:20.159Z,24.53
2019-01-21T19:42:48.971Z,23.33
2019-01-21T19:45:17.803Z,24.00
2019-01-21T19:47:46.194Z,22.87
2019-01-21T19:50:17.631Z,24.20
2019-01-21T19:52:46.023Z,26.03
2019-01-21T19:55:17.788Z,25.40
2019-01-21T19:57:46.170Z,26.17
2019-01-21T20:00:20.249Z,24.33
2019-01-21T20:02:48.707Z,26.87
2019-01-21T20:05:17.281Z,28.60
2019-01-21T20:07:46.019Z,27.43
2019-01-21T20:10:22.702Z,24.33
2019-01-21T20:12:51.159Z,26.53
2019-01-21T20:15:19.602Z,22.87
2019-01-21T20:17:48.136Z,26.70
2019-01-21T20:20:19.592Z,26.50
2019-01-21T20:22:47.985Z,27.53
2019-01-21T20:25:16.538Z,30.10
2019-01-21T20:27:44.920Z,27.87
2019-01-21T20:30:18.854Z,25.77
2019-01-21T20:32:47.253Z,25.03
2019-01-21T20:35:15.798Z,21.10
2019-01-21T20:37:44.239Z,22.80
2019-01-21T20:40:15.871Z,20.40
2019-01-21T20:42:44.263Z,21.83
2019-01-21T20:45:14.593Z,23.70
2019-01-21T20:47:43.063Z,21.13
2019-01-21T20:50:14.501Z,22.43
2019-01-21T20:52:42.896Z,21.30
2019-01-21T20:55:12.444Z,22.27
2019-01-21T20:57:40.840Z,22.77
2019-01-21T21:00:15.354Z,20.57
2019-01-21T21:02:43.743Z,20.67
2019-01-21T21:05:12.186Z,21.50
2019-01-21T21:07:40.581Z,22.00
2019-01-21T21:10:11.327Z,22.20
2019-01-21T21:12:39.716Z,21.10
2019-01-21T21:15:13.894Z,21.83
2019-01-21T21:17:42.296Z,23.63
2019-01-21T21:20:12.522Z,23.93
2019-01-21T21:22:40.990Z,19.83
2019-01-21T21:25:12.439Z,19.50
2019-01-21T21:27:41.190Z,19.20
2019-01-21T21:30:16.060Z,19.87
2019-01-21T21:32:44.452Z,20.37
2019-01-21T21:35:12.979Z,20.40
2019-01-21T21:37:41.554Z,20.70
2019-01-21T21:40:12.731Z,19.60
2019-01-21T21:42:41.176Z,20.00
2019-01-21T21:45:21.711Z,20.90
2019-01-21T21:47:50.483Z,19.10
2019-01-21T21:50:30.458Z,19.43
2019-01-21T21:52:58.972Z,19.53
2019-01-21T21:55:27.386Z,20.40
2019-01-21T21:57:55.767Z,20.43
2019-01-21T22:00:26.853Z,19.63
2019-01-21T22:02:55.248Z,18.80
2019-01-21T22:05:23.699Z,17.50
2019-01-21T22:07:52.084Z,20.37
2019-01-21T22:10:25.524Z,19.00
2019-01-21T22:12:53.907Z,20.60
2019-01-21T22:15:23.922Z,18.47
2019-01-21T22:17:52.311Z,19.10
2019-01-21T22:20:22.387Z,19.57
2019-01-21T22:22:50.772Z,18.67
2019-01-21T22:25:19.723Z,20.00
2019-01-21T22:27:48.285Z,19.10
2019-01-21T22:30:19.344Z,19.07
2019-01-21T22:32:47.801Z,22.47
2019-01-21T22:35:16.184Z,21.00
2019-01-21T22:37:45.009Z,21.90
2019-01-21T22:40:15.643Z,21.60
2019-01-21T22:42:44.018Z,19.10
2019-01-21T22:45:13.855Z,19.47
2019-01-21T22:47:42.238Z,18.20
2019-01-21T22:50:52.275Z,19.53
2019-01-21T22:53:20.667Z,18.20
2019-01-21T22:58:55.701Z,18.87
2019-01-21T23:02:03.989Z,19.77
2019-01-21T23:04:51.493Z,16.93
2019-01-21T23:07:39.121Z,19.30
2019-01-21T23:10:27.645Z,18.53
2019-01-21T23:15:45.353Z,19.67
2019-01-21T23:18:32.906Z,18.50
2019-01-21T23:23:35.069Z,20.90
2019-01-21T23:26:22.705Z,19.90
2019-01-21T23:29:10.545Z,19.50
2019-01-21T23:31:39.074Z,20.60
2019-01-21T23:34:26.729Z,20.10
2019-01-21T23:45:51.278Z,19.13
2019-01-21T23:48:38.909Z,17.27
2019-01-21T23:51:26.418Z,19.07
2019-01-21T23:53:54.843Z,18.20
2019-01-21T23:56:23.304Z,19.10
2019-01-21T23:59:11.095Z,19.20
